Flight Track Log - Related Links

Times and Time Zones

All times are in EDT time to prevent confusion due to time zone crossing. See the N379PK flight status page for this flight to view local times or setup timezone preferences in your user account.

Time Position Orientation Groundspeed Altitude Reporting Facility
EDT Latitude Longitude Course Direction KTS MPH feet Rate Location/Type
Mon 02:22:14 PM 46.1117 -119.1725 140° Southeast 188 216 12,500  Level Seattle Center
Mon 02:23:16 PM 46.0622 -119.1125 140° Southeast 194 223 15,400 2,585 Climbing Seattle Center
Mon 02:24:17 PM 46.0197 -119.0603 140° Southeast 200 230 17,800 2,115 Climbing Seattle Center
Mon 02:25:18 PM 45.9747 -119.0089 142° Southeast 203 234 19,700 1,770 Climbing Seattle Center
Mon 02:26:19 PM 45.9244 -118.9469 139° Southeast 221 254 21,400 1,574 Climbing Seattle Center
Mon 02:27:20 PM 45.8706 -118.8911 144° Southeast 234 269 22,900 836 Climbing Seattle Center
Mon 02:28:21 PM 45.8111 -118.8286 144° Southeast 249 287 23,100 98 Climbing Seattle Center
Mon 02:29:22 PM 45.7433 -118.7547 143° Southeast 281 323 23,100 -49 Level Seattle Center
Mon 02:30:23 PM 45.6725 -118.6797 143° Southeast 305 351 23,000 -49 Descending Seattle Center
Mon 02:31:24 PM 45.6033 -118.6056 143° Southeast 310 357 23,000  Level Seattle Center
Mon 02:32:25 PM 45.5344 -118.5344 144° Southeast 308 354 23,000  Level Seattle Center
Mon 02:33:26 PM 45.4639 -118.4592 143° Southeast 313 360 23,000  Level Seattle Center
Mon 02:34:27 PM 45.3950 -118.3856 143° Southeast 312 359 23,000  Level Seattle Center
Mon 02:35:28 PM 45.3253 -118.3139 144° Southeast 311 358 23,000  Level Seattle Center
Mon 02:36:29 PM 45.2569 -118.2428 144° Southeast 307 353 23,000  Level Seattle Center
Mon 02:37:30 PM 45.1728 -118.1544 143° Southeast 311 358 23,000  Level Seattle Center
Mon 02:38:31 PM 45.1033 -118.0825 144° Southeast 311 358 23,000  Level Seattle Center
Mon 02:39:32 PM 45.0333 -118.0097 144° Southeast 312 359 23,000  Level Seattle Center
Mon 02:40:33 PM 44.9614 -117.9356 144° Southeast 317 365 23,000  Level Seattle Center
Mon 02:41:34 PM 44.8906 -117.8639 144° Southeast 315 362 23,000  Level Seattle Center
Mon 02:42:35 PM 44.8236 -117.7922 143° Southeast 307 353 23,000  Level Seattle Center
Mon 02:43:36 PM 44.7619 -117.7097 136° Southeast 307 353 23,000  Level Seattle Center
Mon 02:44:37 PM 44.6989 -117.6292 138° Southeast 307 353 23,000  Level Seattle Center
Mon 02:45:38 PM 44.6350 -117.5464 137° Southeast 310 357 23,000  Level Seattle Center
Mon 02:46:39 PM 44.5700 -117.4644 138° Southeast 313 360 23,000  Level Seattle Center
Mon 02:47:40 PM 44.5050 -117.3814 138° Southeast 316 364 23,000 -49 Level Seattle Center
Mon 02:48:41 PM 44.4411 -117.3006 138° Southeast 312 359 22,900 -836 Descending Seattle Center
Mon 02:49:42 PM 44.3583 -117.1967 138° Southeast 328 377 21,300 -1,451 Descending Seattle Center
Mon 02:50:12 PM 44.3275 -117.1594 139° Southeast 340 391 20,700 -1,174 Descending Salt Lake Center
Mon 02:51:14 PM 44.2594 -117.0725 138° Southeast 332 382 19,500 -1,161 Descending Salt Lake Center
Mon 02:52:16 PM 44.1892 -116.9875 139° Southeast 334 384 18,300 -1,227 Descending Salt Lake Center
Mon 02:52:42 PM 44.1722 -116.9133 108° East 331 381 17,700 -1,452 Descending Salt Lake Center
Mon 02:53:18 PM 44.1133 -116.8889 163° South 328 377 16,800 -1,545 Descending Salt Lake Center
Mon 02:53:48 PM 44.0967 -116.8239 110° East 308 354 16,000 -1,548 Descending Salt Lake Center
Mon 02:54:20 PM 44.0500 -116.8072 166° South 301 346 15,200 -1,309 Descending Salt Lake Center
Mon 02:54:43 PM 44.0394 -116.7600 107° East 284 327 14,800 -1,161 Descending Salt Lake Center
Mon 02:55:22 PM 43.9864 -116.7289 157° South 292 336 14,000 -1,200 Descending Salt Lake Center
Mon 02:55:43 PM 43.9778 -116.6861 106° East 293 337 13,600 -1,333 Descending Salt Lake Center
Mon 02:56:25 PM 43.9233 -116.6497 154° Southeast 293 337 12,600 -1,279 Descending Salt Lake Center
Mon 02:56:44 PM 43.9183 -116.6025 98° East 294 338 12,300 -1,377 Descending Salt Lake Center
Mon 02:57:26 PM 43.8842 -116.5528 134° Southeast 304 350 11,200 -1,433 Descending Salt Lake Center
Mon 02:57:51 PM 43.8731 -116.4947 105° East 303 349 10,700 -871 Descending Salt Lake Center
Mon 02:58:28 PM 43.8450 -116.4481 130° Southeast 296 341 10,300 -429 Descending Salt Lake Center
Mon 02:59:29 PM 43.8042 -116.3481 119° Southeast 288 331 10,000 -273 Descending Salt Lake Center
Mon 02:59:34 PM 43.8039 -116.3283 91° East 284 327 10,000 -677 Level Salt Lake Center
Mon 03:00:31 PM 43.7558 -116.2589 134° Southeast 279 321 9,300 -800 Descending Salt Lake Center
Mon 03:00:34 PM 43.7533 -116.2475 107° East 278 320 9,200 -1,138 Descending Salt Lake Center
Mon 03:01:29 PM 43.6964 -116.1964 147° Southeast 272 313 8,200 -1,119 Descending Salt Lake Center
Mon 03:01:33 PM 43.6892 -116.1983 191° South 274 315 8,100 -273 Descending Salt Lake Center
Mon 03:02:35 PM 43.6247 -116.1486 151° Southeast 259 298 7,900 -667 Descending Salt Lake Center
Mon 03:03:30 PM 43.5719 -116.1169 157° South 214 246 6,800 -1,258 Descending Salt Lake Center
Mon 03:03:37 PM 43.5694 -116.1167 175° South 229 264 6,600 -2,361 Descending Salt Lake Center
Mon 03:04:31 PM 43.5344 -116.1447 210° Southwest 141 162 4,400 -2,323 Descending Salt Lake Center
Mon 03:04:39 PM 43.5353 -116.1464 305° West 156 180 4,200 -1,000 Descending Salt Lake Center
Mon 03:05:37 PM 43.5514 -116.1914 296° West 119 137 3,300 -492 Descending Salt Lake Center
Mon 03:05:40 PM 43.5517 -116.1894 79° East 137 158 3,700 8,000 Climbing Salt Lake Center
Mon 03:07:00 PM 43.5500 -116.2167 285° West  Level FlightAware Approximate

Login

Don't have an account? Register now (free) for customized features, flight alerts, and more!